sensor_id;sensor_type;location;lat;lon;timestamp;P1;durP1;ratioP1;P2;durP2;ratioP2
46931;SDS011;32670;51.464;11.964;2023-05-20T00:00:19;2.60;;;1.90;;
46931;SDS011;32670;51.464;11.964;2023-05-20T00:02:44;3.33;;;1.63;;
46931;SDS011;32670;51.464;11.964;2023-05-20T00:05:10;1.77;;;1.67;;
46931;SDS011;32670;51.464;11.964;2023-05-20T00:07:35;2.27;;;1.90;;
46931;SDS011;32670;51.464;11.964;2023-05-20T00:10:01;1.70;;;1.60;;
46931;SDS011;32670;51.464;11.964;2023-05-20T00:12:26;2.23;;;1.83;;
46931;SDS011;32670;51.464;11.964;2023-05-20T00:14:52;2.33;;;1.90;;
46931;SDS011;32670;51.464;11.964;2023-05-20T00:17:17;1.70;;;1.60;;
46931;SDS011;32670;51.464;11.964;2023-05-20T00:19:43;1.63;;;1.53;;
46931;SDS011;32670;51.464;11.964;2023-05-20T00:22:08;2.00;;;1.90;;
46931;SDS011;32670;51.464;11.964;2023-05-20T00:24:34;1.90;;;1.70;;
46931;SDS011;32670;51.464;11.964;2023-05-20T00:27:00;4.10;;;1.70;;
46931;SDS011;32670;51.464;11.964;2023-05-20T00:29:26;1.80;;;1.70;;
46931;SDS011;32670;51.464;11.964;2023-05-20T00:31:52;1.70;;;1.50;;
46931;SDS011;32670;51.464;11.964;2023-05-20T00:34:18;1.83;;;1.70;;
46931;SDS011;32670;51.464;11.964;2023-05-20T00:36:44;1.70;;;1.60;;
46931;SDS011;32670;51.464;11.964;2023-05-20T00:39:10;2.87;;;1.50;;
46931;SDS011;32670;51.464;11.964;2023-05-20T00:41:36;1.70;;;1.43;;
46931;SDS011;32670;51.464;11.964;2023-05-20T00:44:02;1.70;;;1.37;;
46931;SDS011;32670;51.464;11.964;2023-05-20T00:46:27;2.70;;;1.57;;
46931;SDS011;32670;51.464;11.964;2023-05-20T00:48:53;1.83;;;1.70;;
46931;SDS011;32670;51.464;11.964;2023-05-20T00:51:19;2.03;;;1.70;;
46931;SDS011;32670;51.464;11.964;2023-05-20T00:53:45;1.83;;;1.60;;
46931;SDS011;32670;51.464;11.964;2023-05-20T00:56:11;1.97;;;1.57;;
46931;SDS011;32670;51.464;11.964;2023-05-20T00:58:37;2.30;;;1.60;;
46931;SDS011;32670;51.464;11.964;2023-05-20T01:01:02;3.03;;;1.53;;
46931;SDS011;32670;51.464;11.964;2023-05-20T01:03:29;1.77;;;1.60;;
46931;SDS011;32670;51.464;11.964;2023-05-20T01:05:54;2.73;;;1.50;;
46931;SDS011;32670;51.464;11.964;2023-05-20T01:08:20;2.70;;;1.70;;
46931;SDS011;32670;51.464;11.964;2023-05-20T01:10:48;2.20;;;1.90;;
46931;SDS011;32670;51.464;11.964;2023-05-20T01:13:20;3.70;;;1.63;;
46931;SDS011;32670;51.464;11.964;2023-05-20T01:15:48;2.10;;;1.40;;
46931;SDS011;32670;51.464;11.964;2023-05-20T01:18:15;2.10;;;1.70;;
46931;SDS011;32670;51.464;11.964;2023-05-20T01:20:42;2.43;;;1.93;;
46931;SDS011;32670;51.464;11.964;2023-05-20T01:23:11;3.57;;;2.00;;
46931;SDS011;32670;51.464;11.964;2023-05-20T01:25:42;3.30;;;1.80;;
46931;SDS011;32670;51.464;11.964;2023-05-20T01:28:08;4.97;;;2.10;;
46931;SDS011;32670;51.464;11.964;2023-05-20T01:30:34;2.63;;;1.90;;
46931;SDS011;32670;51.464;11.964;2023-05-20T01:33:06;2.43;;;2.17;;
46931;SDS011;32670;51.464;11.964;2023-05-20T01:35:35;3.27;;;1.90;;
46931;SDS011;32670;51.464;11.964;2023-05-20T01:38:02;2.03;;;1.83;;
46931;SDS011;32670;51.464;11.964;2023-05-20T01:40:29;4.07;;;2.07;;
46931;SDS011;32670;51.464;11.964;2023-05-20T01:42:56;2.40;;;2.17;;
46931;SDS011;32670;51.464;11.964;2023-05-20T01:45:23;6.23;;;2.13;;
46931;SDS011;32670;51.464;11.964;2023-05-20T01:47:49;3.43;;;1.80;;
46931;SDS011;32670;51.464;11.964;2023-05-20T01:50:15;2.60;;;2.00;;
46931;SDS011;32670;51.464;11.964;2023-05-20T01:52:40;6.40;;;1.80;;
46931;SDS011;32670;51.464;11.964;2023-05-20T01:55:06;3.87;;;2.17;;
46931;SDS011;32670;51.464;11.964;2023-05-20T01:57:32;2.20;;;2.00;;
46931;SDS011;32670;51.464;11.964;2023-05-20T01:59:57;2.63;;;2.00;;
46931;SDS011;32670;51.464;11.964;2023-05-20T02:02:22;3.60;;;1.90;;
46931;SDS011;32670;51.464;11.964;2023-05-20T02:04:49;2.67;;;2.23;;
46931;SDS011;32670;51.464;11.964;2023-05-20T02:07:16;2.23;;;1.90;;
46931;SDS011;32670;51.464;11.964;2023-05-20T02:09:42;2.60;;;1.83;;
46931;SDS011;32670;51.464;11.964;2023-05-20T02:12:09;2.33;;;1.83;;
46931;SDS011;32670;51.464;11.964;2023-05-20T02:14:40;2.80;;;1.70;;
46931;SDS011;32670;51.464;11.964;2023-05-20T02:17:06;3.73;;;2.00;;
46931;SDS011;32670;51.464;11.964;2023-05-20T02:19:31;2.10;;;1.90;;
46931;SDS011;32670;51.464;11.964;2023-05-20T02:21:57;5.73;;;2.10;;
46931;SDS011;32670;51.464;11.964;2023-05-20T02:24:22;5.53;;;1.80;;
46931;SDS011;32670;51.464;11.964;2023-05-20T02:26:48;2.83;;;1.90;;
46931;SDS011;32670;51.464;11.964;2023-05-20T02:29:15;3.13;;;1.90;;
46931;SDS011;32670;51.464;11.964;2023-05-20T02:31:40;2.63;;;1.90;;
46931;SDS011;32670;51.464;11.964;2023-05-20T02:34:06;1.80;;;1.70;;
46931;SDS011;32670;51.464;11.964;2023-05-20T02:36:31;1.77;;;1.60;;
46931;SDS011;32670;51.464;11.964;2023-05-20T02:38:56;1.80;;;1.70;;
46931;SDS011;32670;51.464;11.964;2023-05-20T02:41:22;3.27;;;1.97;;
46931;SDS011;32670;51.464;11.964;2023-05-20T02:43:47;1.80;;;1.70;;
46931;SDS011;32670;51.464;11.964;2023-05-20T02:46:13;2.50;;;2.00;;
46931;SDS011;32670;51.464;11.964;2023-05-20T02:48:39;1.80;;;1.70;;
46931;SDS011;32670;51.464;11.964;2023-05-20T02:51:05;1.80;;;1.70;;
46931;SDS011;32670;51.464;11.964;2023-05-20T02:53:30;2.13;;;1.80;;
46931;SDS011;32670;51.464;11.964;2023-05-20T02:55:56;3.00;;;1.70;;
46931;SDS011;32670;51.464;11.964;2023-05-20T02:58:21;2.83;;;1.63;;
46931;SDS011;32670;51.464;11.964;2023-05-20T03:00:50;2.27;;;1.60;;
46931;SDS011;32670;51.464;11.964;2023-05-20T03:03:18;1.80;;;1.70;;
46931;SDS011;32670;51.464;11.964;2023-05-20T03:05:43;2.43;;;1.70;;
46931;SDS011;32670;51.464;11.964;2023-05-20T03:08:10;1.80;;;1.67;;
46931;SDS011;32670;51.464;11.964;2023-05-20T03:10:39;5.83;;;1.70;;
46931;SDS011;32670;51.464;11.964;2023-05-20T03:13:05;1.70;;;1.60;;
46931;SDS011;32670;51.464;11.964;2023-05-20T03:15:35;2.50;;;1.87;;
46931;SDS011;32670;51.464;11.964;2023-05-20T03:18:04;2.43;;;1.50;;
46931;SDS011;32670;51.464;11.964;2023-05-20T03:20:31;3.43;;;1.60;;
46931;SDS011;32670;51.464;11.964;2023-05-20T03:22:56;3.03;;;1.90;;
46931;SDS011;32670;51.464;11.964;2023-05-20T03:25:23;3.40;;;1.70;;
46931;SDS011;32670;51.464;11.964;2023-05-20T03:27:48;2.40;;;1.60;;
46931;SDS011;32670;51.464;11.964;2023-05-20T03:30:14;2.83;;;1.83;;
46931;SDS011;32670;51.464;11.964;2023-05-20T03:32:39;2.50;;;1.97;;
46931;SDS011;32670;51.464;11.964;2023-05-20T03:35:05;3.50;;;2.40;;
46931;SDS011;32670;51.464;11.964;2023-05-20T03:37:32;2.37;;;2.17;;
46931;SDS011;32670;51.464;11.964;2023-05-20T03:39:57;2.80;;;1.80;;
46931;SDS011;32670;51.464;11.964;2023-05-20T03:42:23;3.87;;;2.40;;
46931;SDS011;32670;51.464;11.964;2023-05-20T03:44:48;3.20;;;2.23;;
46931;SDS011;32670;51.464;11.964;2023-05-20T03:47:14;2.47;;;2.27;;
46931;SDS011;32670;51.464;11.964;2023-05-20T03:49:39;2.63;;;2.30;;
46931;SDS011;32670;51.464;11.964;2023-05-20T03:52:05;2.67;;;2.47;;
46931;SDS011;32670;51.464;11.964;2023-05-20T03:54:31;3.70;;;2.40;;
46931;SDS011;32670;51.464;11.964;2023-05-20T03:56:56;3.40;;;2.27;;
46931;SDS011;32670;51.464;11.964;2023-05-20T03:59:22;2.70;;;2.40;;
46931;SDS011;32670;51.464;11.964;2023-05-20T04:01:47;2.47;;;2.30;;
46931;SDS011;32670;51.464;11.964;2023-05-20T04:04:13;5.13;;;2.70;;
46931;SDS011;32670;51.464;11.964;2023-05-20T04:06:38;3.50;;;2.80;;
46931;SDS011;32670;51.464;11.964;2023-05-20T04:09:04;5.27;;;2.83;;
46931;SDS011;32670;51.464;11.964;2023-05-20T04:11:30;3.00;;;2.53;;
46931;SDS011;32670;51.464;11.964;2023-05-20T04:13:55;2.80;;;2.60;;
46931;SDS011;32670;51.464;11.964;2023-05-20T04:16:22;2.80;;;2.60;;
46931;SDS011;32670;51.464;11.964;2023-05-20T04:18:48;3.80;;;2.90;;
46931;SDS011;32670;51.464;11.964;2023-05-20T04:21:14;4.97;;;2.90;;
46931;SDS011;32670;51.464;11.964;2023-05-20T04:23:40;2.80;;;2.60;;
46931;SDS011;32670;51.464;11.964;2023-05-20T04:26:05;3.30;;;2.77;;
46931;SDS011;32670;51.464;11.964;2023-05-20T04:28:31;4.17;;;3.37;;
46931;SDS011;32670;51.464;11.964;2023-05-20T04:30:57;3.80;;;2.90;;
46931;SDS011;32670;51.464;11.964;2023-05-20T04:33:23;4.83;;;2.73;;
46931;SDS011;32670;51.464;11.964;2023-05-20T04:35:48;3.10;;;2.90;;
46931;SDS011;32670;51.464;11.964;2023-05-20T04:38:14;3.67;;;2.60;;
46931;SDS011;32670;51.464;11.964;2023-05-20T04:40:40;4.33;;;3.23;;
46931;SDS011;32670;51.464;11.964;2023-05-20T04:43:05;3.07;;;2.87;;
46931;SDS011;32670;51.464;11.964;2023-05-20T04:45:31;2.87;;;2.67;;
46931;SDS011;32670;51.464;11.964;2023-05-20T04:47:57;4.90;;;2.80;;
46931;SDS011;32670;51.464;11.964;2023-05-20T04:50:23;3.67;;;2.90;;
46931;SDS011;32670;51.464;11.964;2023-05-20T04:52:48;7.83;;;3.10;;
46931;SDS011;32670;51.464;11.964;2023-05-20T04:55:14;5.03;;;2.80;;
46931;SDS011;32670;51.464;11.964;2023-05-20T04:57:40;3.47;;;3.17;;
46931;SDS011;32670;51.464;11.964;2023-05-20T05:00:06;3.30;;;3.00;;
46931;SDS011;32670;51.464;11.964;2023-05-20T05:02:33;5.40;;;3.23;;
46931;SDS011;32670;51.464;11.964;2023-05-20T05:04:59;6.80;;;2.90;;
46931;SDS011;32670;51.464;11.964;2023-05-20T05:07:25;5.23;;;3.10;;
46931;SDS011;32670;51.464;11.964;2023-05-20T05:09:50;5.17;;;3.40;;
46931;SDS011;32670;51.464;11.964;2023-05-20T05:12:16;3.93;;;3.33;;
46931;SDS011;32670;51.464;11.964;2023-05-20T05:14:41;3.30;;;3.00;;
46931;SDS011;32670;51.464;11.964;2023-05-20T05:17:07;5.80;;;3.60;;
46931;SDS011;32670;51.464;11.964;2023-05-20T05:19:32;3.20;;;2.90;;
46931;SDS011;32670;51.464;11.964;2023-05-20T05:21:58;6.10;;;4.33;;
46931;SDS011;32670;51.464;11.964;2023-05-20T05:24:23;7.53;;;4.60;;
46931;SDS011;32670;51.464;11.964;2023-05-20T05:26:52;6.20;;;5.00;;
46931;SDS011;32670;51.464;11.964;2023-05-20T05:29:20;5.33;;;4.60;;
46931;SDS011;32670;51.464;11.964;2023-05-20T05:31:46;5.97;;;5.00;;
46931;SDS011;32670;51.464;11.964;2023-05-20T05:34:11;5.80;;;5.20;;
46931;SDS011;32670;51.464;11.964;2023-05-20T05:36:38;6.63;;;5.43;;
46931;SDS011;32670;51.464;11.964;2023-05-20T05:39:04;5.47;;;5.07;;
46931;SDS011;32670;51.464;11.964;2023-05-20T05:41:30;5.60;;;5.10;;
46931;SDS011;32670;51.464;11.964;2023-05-20T05:43:55;7.33;;;5.90;;
46931;SDS011;32670;51.464;11.964;2023-05-20T05:46:22;8.23;;;5.50;;
46931;SDS011;32670;51.464;11.964;2023-05-20T05:48:47;6.47;;;5.87;;
46931;SDS011;32670;51.464;11.964;2023-05-20T05:51:14;6.60;;;6.00;;
46931;SDS011;32670;51.464;11.964;2023-05-20T05:53:40;6.60;;;6.00;;
46931;SDS011;32670;51.464;11.964;2023-05-20T05:56:05;6.00;;;5.50;;
46931;SDS011;32670;51.464;11.964;2023-05-20T05:58:31;5.70;;;5.10;;
46931;SDS011;32670;51.464;11.964;2023-05-20T06:00:57;6.40;;;5.80;;
46931;SDS011;32670;51.464;11.964;2023-05-20T06:03:23;6.43;;;5.70;;
46931;SDS011;32670;51.464;11.964;2023-05-20T06:05:49;6.43;;;5.83;;
46931;SDS011;32670;51.464;11.964;2023-05-20T06:08:14;10.50;;;6.13;;
46931;SDS011;32670;51.464;11.964;2023-05-20T06:10:40;6.80;;;6.20;;
46931;SDS011;32670;51.464;11.964;2023-05-20T06:13:05;7.17;;;6.47;;
46931;SDS011;32670;51.464;11.964;2023-05-20T06:15:31;12.53;;;6.50;;
46931;SDS011;32670;51.464;11.964;2023-05-20T06:17:56;11.53;;;6.13;;
46931;SDS011;32670;51.464;11.964;2023-05-20T06:20:22;14.50;;;6.60;;
46931;SDS011;32670;51.464;11.964;2023-05-20T06:22:47;9.13;;;7.03;;
46931;SDS011;32670;51.464;11.964;2023-05-20T06:25:13;8.57;;;7.03;;
46931;SDS011;32670;51.464;11.964;2023-05-20T06:27:38;9.27;;;7.03;;
46931;SDS011;32670;51.464;11.964;2023-05-20T06:30:04;8.33;;;7.33;;
46931;SDS011;32670;51.464;11.964;2023-05-20T06:32:30;9.27;;;7.73;;
46931;SDS011;32670;51.464;11.964;2023-05-20T06:34:55;7.70;;;7.00;;
46931;SDS011;32670;51.464;11.964;2023-05-20T06:37:21;8.13;;;7.30;;
46931;SDS011;32670;51.464;11.964;2023-05-20T06:39:50;8.67;;;7.87;;
46931;SDS011;32670;51.464;11.964;2023-05-20T06:42:18;9.90;;;7.40;;
46931;SDS011;32670;51.464;11.964;2023-05-20T06:44:44;8.00;;;7.20;;
46931;SDS011;32670;51.464;11.964;2023-05-20T06:47:10;8.40;;;7.60;;
46931;SDS011;32670;51.464;11.964;2023-05-20T06:49:35;8.37;;;7.57;;
46931;SDS011;32670;51.464;11.964;2023-05-20T06:52:01;8.77;;;7.93;;
46931;SDS011;32670;51.464;11.964;2023-05-20T06:54:26;9.00;;;8.20;;
46931;SDS011;32670;51.464;11.964;2023-05-20T06:56:52;8.67;;;7.87;;
46931;SDS011;32670;51.464;11.964;2023-05-20T06:59:17;8.53;;;7.73;;
46931;SDS011;32670;51.464;11.964;2023-05-20T07:01:43;8.73;;;7.90;;
46931;SDS011;32670;51.464;11.964;2023-05-20T07:04:08;8.07;;;7.27;;
46931;SDS011;32670;51.464;11.964;2023-05-20T07:06:34;7.30;;;6.37;;
46931;SDS011;32670;51.464;11.964;2023-05-20T07:08:59;6.27;;;5.70;;
46931;SDS011;32670;51.464;11.964;2023-05-20T07:11:25;5.93;;;5.33;;
46931;SDS011;32670;51.464;11.964;2023-05-20T07:13:50;6.40;;;5.80;;
46931;SDS011;32670;51.464;11.964;2023-05-20T07:16:17;6.07;;;5.20;;
46931;SDS011;32670;51.464;11.964;2023-05-20T07:18:42;5.80;;;5.27;;
46931;SDS011;32670;51.464;11.964;2023-05-20T07:21:08;5.10;;;4.70;;
46931;SDS011;32670;51.464;11.964;2023-05-20T07:23:33;5.70;;;5.20;;
46931;SDS011;32670;51.464;11.964;2023-05-20T07:25:59;4.97;;;4.47;;
46931;SDS011;32670;51.464;11.964;2023-05-20T07:28:25;5.10;;;4.70;;
46931;SDS011;32670;51.464;11.964;2023-05-20T07:30:50;5.40;;;4.90;;
46931;SDS011;32670;51.464;11.964;2023-05-20T07:33:16;5.60;;;5.10;;
46931;SDS011;32670;51.464;11.964;2023-05-20T07:35:42;5.77;;;5.27;;
46931;SDS011;32670;51.464;11.964;2023-05-20T07:38:09;4.83;;;4.43;;
46931;SDS011;32670;51.464;11.964;2023-05-20T07:40:36;4.90;;;4.50;;
46931;SDS011;32670;51.464;11.964;2023-05-20T07:43:02;5.20;;;4.73;;
46931;SDS011;32670;51.464;11.964;2023-05-20T07:45:28;5.87;;;4.70;;
46931;SDS011;32670;51.464;11.964;2023-05-20T07:47:53;4.87;;;4.47;;
46931;SDS011;32670;51.464;11.964;2023-05-20T07:50:19;4.83;;;4.43;;
46931;SDS011;32670;51.464;11.964;2023-05-20T07:52:45;4.67;;;4.37;;
46931;SDS011;32670;51.464;11.964;2023-05-20T07:55:10;4.73;;;4.33;;
46931;SDS011;32670;51.464;11.964;2023-05-20T07:57:35;4.80;;;4.40;;
46931;SDS011;32670;51.464;11.964;2023-05-20T08:00:01;4.40;;;4.00;;
46931;SDS011;32670;51.464;11.964;2023-05-20T08:02:27;4.60;;;4.20;;
46931;SDS011;32670;51.464;11.964;2023-05-20T08:04:53;4.10;;;3.80;;
46931;SDS011;32670;51.464;11.964;2023-05-20T08:07:18;4.60;;;4.20;;
46931;SDS011;32670;51.464;11.964;2023-05-20T08:09:44;4.90;;;4.40;;
46931;SDS011;32670;51.464;11.964;2023-05-20T08:12:09;4.57;;;4.17;;
46931;SDS011;32670;51.464;11.964;2023-05-20T08:14:35;4.43;;;4.03;;
46931;SDS011;32670;51.464;11.964;2023-05-20T08:17:01;4.70;;;4.30;;
46931;SDS011;32670;51.464;11.964;2023-05-20T08:19:26;4.97;;;4.57;;
46931;SDS011;32670;51.464;11.964;2023-05-20T08:21:52;4.77;;;4.37;;
46931;SDS011;32670;51.464;11.964;2023-05-20T08:24:18;6.77;;;5.23;;
46931;SDS011;32670;51.464;11.964;2023-05-20T08:26:43;10.70;;;7.97;;
46931;SDS011;32670;51.464;11.964;2023-05-20T08:29:09;8.77;;;7.87;;
46931;SDS011;32670;51.464;11.964;2023-05-20T08:31:34;12.07;;;9.90;;
46931;SDS011;32670;51.464;11.964;2023-05-20T08:34:00;12.03;;;10.23;;
46931;SDS011;32670;51.464;11.964;2023-05-20T08:36:25;13.77;;;10.93;;
46931;SDS011;32670;51.464;11.964;2023-05-20T08:38:51;12.93;;;10.73;;
46931;SDS011;32670;51.464;11.964;2023-05-20T08:41:16;13.00;;;11.70;;
46931;SDS011;32670;51.464;11.964;2023-05-20T08:43:42;15.70;;;11.67;;
46931;SDS011;32670;51.464;11.964;2023-05-20T08:46:08;13.63;;;12.33;;
46931;SDS011;32670;51.464;11.964;2023-05-20T08:48:35;14.37;;;12.97;;
46931;SDS011;32670;51.464;11.964;2023-05-20T08:51:01;14.63;;;13.07;;
46931;SDS011;32670;51.464;11.964;2023-05-20T08:53:27;13.90;;;12.53;;
46931;SDS011;32670;51.464;11.964;2023-05-20T08:55:54;14.53;;;13.03;;
46931;SDS011;32670;51.464;11.964;2023-05-20T08:58:22;16.03;;;14.43;;
46931;SDS011;32670;51.464;11.964;2023-05-20T09:00:48;15.70;;;14.10;;
46931;SDS011;32670;51.464;11.964;2023-05-20T09:03:15;16.00;;;14.50;;
46931;SDS011;32670;51.464;11.964;2023-05-20T09:05:40;16.37;;;14.67;;
46931;SDS011;32670;51.464;11.964;2023-05-20T09:08:06;16.57;;;14.97;;
46931;SDS011;32670;51.464;11.964;2023-05-20T09:10:33;16.43;;;14.93;;
46931;SDS011;32670;51.464;11.964;2023-05-20T09:13:00;17.90;;;16.03;;
46931;SDS011;32670;51.464;11.964;2023-05-20T09:15:27;17.13;;;15.40;;
46931;SDS011;32670;51.464;11.964;2023-05-20T09:17:53;16.97;;;15.30;;
46931;SDS011;32670;51.464;11.964;2023-05-20T09:20:20;17.67;;;15.83;;
46931;SDS011;32670;51.464;11.964;2023-05-20T09:22:49;18.30;;;16.37;;
46931;SDS011;32670;51.464;11.964;2023-05-20T09:25:19;19.47;;;17.57;;
46931;SDS011;32670;51.464;11.964;2023-05-20T09:27:46;19.47;;;17.37;;
46931;SDS011;32670;51.464;11.964;2023-05-20T09:30:12;18.93;;;17.03;;
46931;SDS011;32670;51.464;11.964;2023-05-20T09:32:38;19.33;;;17.50;;
46931;SDS011;32670;51.464;11.964;2023-05-20T09:35:03;19.77;;;17.90;;
46931;SDS011;32670;51.464;11.964;2023-05-20T09:37:30;21.43;;;17.60;;
46931;SDS011;32670;51.464;11.964;2023-05-20T09:39:59;20.47;;;18.53;;
46931;SDS011;32670;51.464;11.964;2023-05-20T09:42:32;21.70;;;19.53;;
46931;SDS011;32670;51.464;11.964;2023-05-20T09:45:03;20.90;;;18.87;;
46931;SDS011;32670;51.464;11.964;2023-05-20T09:47:30;21.90;;;19.70;;
46931;SDS011;32670;51.464;11.964;2023-05-20T09:49:56;21.17;;;19.10;;
46931;SDS011;32670;51.464;11.964;2023-05-20T09:52:22;21.53;;;19.53;;
46931;SDS011;32670;51.464;11.964;2023-05-20T09:54:48;20.97;;;18.97;;
46931;SDS011;32670;51.464;11.964;2023-05-20T09:57:14;22.17;;;19.97;;
46931;SDS011;32670;51.464;11.964;2023-05-20T09:59:40;20.83;;;18.93;;
46931;SDS011;32670;51.464;11.964;2023-05-20T10:02:06;22.53;;;20.30;;
46931;SDS011;32670;51.464;11.964;2023-05-20T10:04:33;23.30;;;21.10;;
46931;SDS011;32670;51.464;11.964;2023-05-20T10:10:16;23.60;;;21.40;;
46931;SDS011;32670;51.464;11.964;2023-05-20T10:13:18;23.90;;;21.50;;
46931;SDS011;32670;51.464;11.964;2023-05-20T10:16:12;23.07;;;20.80;;
46931;SDS011;32670;51.464;11.964;2023-05-20T10:19:04;23.87;;;21.67;;
46931;SDS011;32670;51.464;11.964;2023-05-20T10:21:37;23.90;;;21.60;;
46931;SDS011;32670;51.464;11.964;2023-05-20T10:24:06;23.97;;;21.73;;
46931;SDS011;32670;51.464;11.964;2023-05-20T10:26:38;24.77;;;22.37;;
46931;SDS011;32670;51.464;11.964;2023-05-20T10:29:17;24.57;;;22.30;;
46931;SDS011;32670;51.464;11.964;2023-05-20T10:31:44;24.47;;;22.07;;
46931;SDS011;32670;51.464;11.964;2023-05-20T10:34:15;24.43;;;22.07;;
46931;SDS011;32670;51.464;11.964;2023-05-20T10:36:45;24.60;;;22.10;;
46931;SDS011;32670;51.464;11.964;2023-05-20T10:39:32;25.00;;;22.70;;
46931;SDS011;32670;51.464;11.964;2023-05-20T10:42:07;23.70;;;21.60;;
46931;SDS011;32670;51.464;11.964;2023-05-20T10:44:43;23.47;;;21.27;;
46931;SDS011;32670;51.464;11.964;2023-05-20T10:47:10;25.17;;;22.77;;
46931;SDS011;32670;51.464;11.964;2023-05-20T10:49:39;23.73;;;21.33;;
46931;SDS011;32670;51.464;11.964;2023-05-20T10:52:08;24.67;;;22.27;;
46931;SDS011;32670;51.464;11.964;2023-05-20T10:54:35;24.77;;;22.30;;
46931;SDS011;32670;51.464;11.964;2023-05-20T10:57:04;24.97;;;22.60;;
46931;SDS011;32670;51.464;11.964;2023-05-20T10:59:32;25.17;;;22.57;;
46931;SDS011;32670;51.464;11.964;2023-05-20T11:01:58;24.17;;;21.87;;
46931;SDS011;32670;51.464;11.964;2023-05-20T11:04:25;24.83;;;22.47;;
46931;SDS011;32670;51.464;11.964;2023-05-20T11:06:52;24.33;;;22.00;;
46931;SDS011;32670;51.464;11.964;2023-05-20T11:09:19;26.00;;;23.37;;
46931;SDS011;32670;51.464;11.964;2023-05-20T11:11:45;25.97;;;23.47;;
46931;SDS011;32670;51.464;11.964;2023-05-20T11:14:10;26.17;;;23.57;;
46931;SDS011;32670;51.464;11.964;2023-05-20T11:16:38;24.60;;;22.40;;
46931;SDS011;32670;51.464;11.964;2023-05-20T11:19:07;26.50;;;23.97;;
46931;SDS011;32670;51.464;11.964;2023-05-20T11:21:44;26.03;;;23.63;;
46931;SDS011;32670;51.464;11.964;2023-05-20T11:24:13;25.90;;;23.43;;
46931;SDS011;32670;51.464;11.964;2023-05-20T11:26:45;26.77;;;24.10;;
46931;SDS011;32670;51.464;11.964;2023-05-20T11:29:11;26.83;;;24.20;;
46931;SDS011;32670;51.464;11.964;2023-05-20T11:31:37;27.20;;;24.60;;
46931;SDS011;32670;51.464;11.964;2023-05-20T11:34:03;26.53;;;24.00;;
46931;SDS011;32670;51.464;11.964;2023-05-20T11:36:28;26.37;;;23.97;;
46931;SDS011;32670;51.464;11.964;2023-05-20T11:38:57;27.03;;;24.40;;
46931;SDS011;32670;51.464;11.964;2023-05-20T11:41:24;27.50;;;24.80;;
46931;SDS011;32670;51.464;11.964;2023-05-20T11:43:58;26.80;;;24.27;;
46931;SDS011;32670;51.464;11.964;2023-05-20T11:46:25;28.40;;;25.43;;
46931;SDS011;32670;51.464;11.964;2023-05-20T11:48:54;27.63;;;24.87;;
46931;SDS011;32670;51.464;11.964;2023-05-20T11:51:23;27.27;;;24.67;;
46931;SDS011;32670;51.464;11.964;2023-05-20T11:53:51;27.90;;;25.20;;
46931;SDS011;32670;51.464;11.964;2023-05-20T11:56:16;28.27;;;25.33;;
46931;SDS011;32670;51.464;11.964;2023-05-20T11:58:42;26.93;;;24.43;;
46931;SDS011;32670;51.464;11.964;2023-05-20T12:01:08;26.83;;;24.43;;
46931;SDS011;32670;51.464;11.964;2023-05-20T12:03:34;26.27;;;23.87;;
46931;SDS011;32670;51.464;11.964;2023-05-20T12:06:01;26.33;;;23.73;;
46931;SDS011;32670;51.464;11.964;2023-05-20T12:08:27;27.67;;;24.90;;
46931;SDS011;32670;51.464;11.964;2023-05-20T12:10:53;26.30;;;23.80;;
46931;SDS011;32670;51.464;11.964;2023-05-20T12:13:18;25.47;;;22.97;;
46931;SDS011;32670;51.464;11.964;2023-05-20T12:15:44;26.40;;;23.77;;
46931;SDS011;32670;51.464;11.964;2023-05-20T12:18:09;24.90;;;22.60;;
46931;SDS011;32670;51.464;11.964;2023-05-20T12:20:35;24.83;;;22.40;;
46931;SDS011;32670;51.464;11.964;2023-05-20T12:23:01;25.17;;;22.77;;
46931;SDS011;32670;51.464;11.964;2023-05-20T12:25:26;25.17;;;22.77;;
46931;SDS011;32670;51.464;11.964;2023-05-20T12:27:53;24.40;;;22.00;;
46931;SDS011;32670;51.464;11.964;2023-05-20T12:30:20;25.27;;;22.93;;
46931;SDS011;32670;51.464;11.964;2023-05-20T12:32:47;26.07;;;23.50;;
46931;SDS011;32670;51.464;11.964;2023-05-20T12:35:16;25.93;;;23.63;;
46931;SDS011;32670;51.464;11.964;2023-05-20T12:37:43;26.60;;;23.73;;
46931;SDS011;32670;51.464;11.964;2023-05-20T12:40:09;25.47;;;23.07;;
46931;SDS011;32670;51.464;11.964;2023-05-20T12:42:36;25.30;;;22.93;;
46931;SDS011;32670;51.464;11.964;2023-05-20T12:45:03;26.90;;;24.30;;
46931;SDS011;32670;51.464;11.964;2023-05-20T12:47:31;26.40;;;23.90;;
46931;SDS011;32670;51.464;11.964;2023-05-20T12:49:58;26.33;;;23.80;;
46931;SDS011;32670;51.464;11.964;2023-05-20T12:52:24;25.63;;;23.27;;
46931;SDS011;32670;51.464;11.964;2023-05-20T12:54:50;23.90;;;21.53;;
46931;SDS011;32670;51.464;11.964;2023-05-20T12:57:16;24.87;;;22.57;;
46931;SDS011;32670;51.464;11.964;2023-05-20T12:59:43;25.20;;;22.90;;
46931;SDS011;32670;51.464;11.964;2023-05-20T13:02:08;24.60;;;22.23;;
46931;SDS011;32670;51.464;11.964;2023-05-20T13:04:34;25.00;;;22.40;;
46931;SDS011;32670;51.464;11.964;2023-05-20T13:07:00;24.53;;;22.07;;
46931;SDS011;32670;51.464;11.964;2023-05-20T13:09:25;24.30;;;21.80;;
46931;SDS011;32670;51.464;11.964;2023-05-20T13:11:51;23.37;;;21.17;;
46931;SDS011;32670;51.464;11.964;2023-05-20T13:14:16;24.50;;;22.23;;
46931;SDS011;32670;51.464;11.964;2023-05-20T13:16:42;24.50;;;21.93;;
46931;SDS011;32670;51.464;11.964;2023-05-20T13:19:07;23.57;;;21.17;;
46931;SDS011;32670;51.464;11.964;2023-05-20T13:21:33;23.30;;;21.00;;
46931;SDS011;32670;51.464;11.964;2023-05-20T13:23:58;24.17;;;21.87;;
46931;SDS011;32670;51.464;11.964;2023-05-20T13:26:25;22.50;;;20.43;;
46931;SDS011;32670;51.464;11.964;2023-05-20T13:28:50;22.93;;;20.73;;
46931;SDS011;32670;51.464;11.964;2023-05-20T13:31:16;22.50;;;20.40;;
46931;SDS011;32670;51.464;11.964;2023-05-20T13:33:41;23.53;;;21.33;;
46931;SDS011;32670;51.464;11.964;2023-05-20T13:36:07;23.20;;;21.00;;
46931;SDS011;32670;51.464;11.964;2023-05-20T13:38:33;23.70;;;21.40;;
46931;SDS011;32670;51.464;11.964;2023-05-20T13:40:58;22.63;;;20.57;;
46931;SDS011;32670;51.464;11.964;2023-05-20T13:43:24;22.03;;;20.03;;
46931;SDS011;32670;51.464;11.964;2023-05-20T13:45:51;22.60;;;20.60;;
46931;SDS011;32670;51.464;11.964;2023-05-20T13:48:16;21.50;;;19.37;;
46931;SDS011;32670;51.464;11.964;2023-05-20T13:50:42;22.50;;;20.37;;
46931;SDS011;32670;51.464;11.964;2023-05-20T13:53:08;22.97;;;20.77;;
46931;SDS011;32670;51.464;11.964;2023-05-20T13:55:38;21.30;;;19.20;;
46931;SDS011;32670;51.464;11.964;2023-05-20T13:58:03;21.93;;;19.93;;
46931;SDS011;32670;51.464;11.964;2023-05-20T14:00:32;21.10;;;19.20;;
46931;SDS011;32670;51.464;11.964;2023-05-20T14:03:01;21.43;;;19.43;;
46931;SDS011;32670;51.464;11.964;2023-05-20T14:05:29;20.93;;;19.03;;
46931;SDS011;32670;51.464;11.964;2023-05-20T14:07:55;20.30;;;18.33;;
46931;SDS011;32670;51.464;11.964;2023-05-20T14:10:20;21.37;;;19.17;;
46931;SDS011;32670;51.464;11.964;2023-05-20T14:12:46;20.30;;;18.43;;
46931;SDS011;32670;51.464;11.964;2023-05-20T14:15:12;21.13;;;19.03;;
46931;SDS011;32670;51.464;11.964;2023-05-20T14:17:37;20.33;;;18.57;;
46931;SDS011;32670;51.464;11.964;2023-05-20T14:20:03;19.90;;;18.10;;
46931;SDS011;32670;51.464;11.964;2023-05-20T14:22:29;19.60;;;17.70;;